sensor_id;sensor_type;location;lat;lon;timestamp;temperature;humidity
20446;DHT22;10382;49.140;9.234;2022-08-01T00:02:18;24.10;85.70
20446;DHT22;10382;49.140;9.234;2022-08-01T00:04:45;24.10;85.80
20446;DHT22;10382;49.140;9.234;2022-08-01T00:07:12;24.10;86.60
20446;DHT22;10382;49.140;9.234;2022-08-01T00:09:39;24.10;86.30
20446;DHT22;10382;49.140;9.234;2022-08-01T00:12:06;24.10;86.80
20446;DHT22;10382;49.140;9.234;2022-08-01T00:14:33;24.00;87.30
20446;DHT22;10382;49.140;9.234;2022-08-01T00:17:00;24.00;88.20
20446;DHT22;10382;49.140;9.234;2022-08-01T00:19:28;24.00;89.00
20446;DHT22;10382;49.140;9.234;2022-08-01T00:21:55;24.00;89.80
20446;DHT22;10382;49.140;9.234;2022-08-01T00:24:22;23.90;90.20
20446;DHT22;10382;49.140;9.234;2022-08-01T00:26:49;23.90;90.50
20446;DHT22;10382;49.140;9.234;2022-08-01T00:29:16;23.80;90.60
20446;DHT22;10382;49.140;9.234;2022-08-01T00:31:43;23.80;91.00
20446;DHT22;10382;49.140;9.234;2022-08-01T00:34:09;23.70;91.40
20446;DHT22;10382;49.140;9.234;2022-08-01T00:36:38;23.60;91.40
20446;DHT22;10382;49.140;9.234;2022-08-01T00:39:05;23.60;91.70
20446;DHT22;10382;49.140;9.234;2022-08-01T00:41:32;23.60;92.30
20446;DHT22;10382;49.140;9.234;2022-08-01T00:44:02;23.50;92.70
20446;DHT22;10382;49.140;9.234;2022-08-01T00:46:29;23.60;92.90
20446;DHT22;10382;49.140;9.234;2022-08-01T00:48:57;23.50;93.20
20446;DHT22;10382;49.140;9.234;2022-08-01T00:51:24;23.50;93.60
20446;DHT22;10382;49.140;9.234;2022-08-01T00:53:53;23.40;93.90
20446;DHT22;10382;49.140;9.234;2022-08-01T00:56:22;23.30;94.30
20446;DHT22;10382;49.140;9.234;2022-08-01T00:58:50;23.30;95.00
20446;DHT22;10382;49.140;9.234;2022-08-01T01:01:17;23.20;95.60
20446;DHT22;10382;49.140;9.234;2022-08-01T01:03:46;23.20;96.60
20446;DHT22;10382;49.140;9.234;2022-08-01T01:06:25;23.20;96.90
20446;DHT22;10382;49.140;9.234;2022-08-01T01:09:11;23.10;97.40
20446;DHT22;10382;49.140;9.234;2022-08-01T01:11:46;23.10;98.20
20446;DHT22;10382;49.140;9.234;2022-08-01T01:14:21;23.10;98.60
20446;DHT22;10382;49.140;9.234;2022-08-01T01:16:49;23.10;98.90
20446;DHT22;10382;49.140;9.234;2022-08-01T01:19:23;23.20;99.40
20446;DHT22;10382;49.140;9.234;2022-08-01T01:22:16;23.20;99.70
20446;DHT22;10382;49.140;9.234;2022-08-01T01:24:51;23.30;99.80
20446;DHT22;10382;49.140;9.234;2022-08-01T01:27:32;23.40;99.80
20446;DHT22;10382;49.140;9.234;2022-08-01T01:30:04;23.40;99.90
20446;DHT22;10382;49.140;9.234;2022-08-01T01:32:33;23.50;99.90
20446;DHT22;10382;49.140;9.234;2022-08-01T01:35:05;23.50;99.90
20446;DHT22;10382;49.140;9.234;2022-08-01T01:37:33;23.60;99.90
20446;DHT22;10382;49.140;9.234;2022-08-01T01:40:01;23.60;99.90
20446;DHT22;10382;49.140;9.234;2022-08-01T01:42:30;23.60;99.90
20446;DHT22;10382;49.140;9.234;2022-08-01T01:44:58;23.60;99.90
20446;DHT22;10382;49.140;9.234;2022-08-01T01:47:28;23.50;99.90
20446;DHT22;10382;49.140;9.234;2022-08-01T01:49:57;23.50;99.90
20446;DHT22;10382;49.140;9.234;2022-08-01T01:52:25;23.60;99.90
20446;DHT22;10382;49.140;9.234;2022-08-01T01:54:53;23.60;99.90
20446;DHT22;10382;49.140;9.234;2022-08-01T01:57:21;23.60;99.90
20446;DHT22;10382;49.140;9.234;2022-08-01T01:59:49;23.50;99.90
20446;DHT22;10382;49.140;9.234;2022-08-01T02:02:17;23.50;99.90
20446;DHT22;10382;49.140;9.234;2022-08-01T02:04:46;23.50;99.90
20446;DHT22;10382;49.140;9.234;2022-08-01T02:07:17;23.50;99.90
20446;DHT22;10382;49.140;9.234;2022-08-01T02:09:46;23.50;99.90
20446;DHT22;10382;49.140;9.234;2022-08-01T02:12:14;23.50;99.90
20446;DHT22;10382;49.140;9.234;2022-08-01T02:14:44;23.40;99.90
20446;DHT22;10382;49.140;9.234;2022-08-01T02:17:17;23.50;99.90
20446;DHT22;10382;49.140;9.234;2022-08-01T02:19:47;23.50;99.90
20446;DHT22;10382;49.140;9.234;2022-08-01T02:22:18;23.50;99.90
20446;DHT22;10382;49.140;9.234;2022-08-01T02:24:50;23.50;99.90
20446;DHT22;10382;49.140;9.234;2022-08-01T02:27:24;23.40;99.90
20446;DHT22;10382;49.140;9.234;2022-08-01T02:29:55;23.40;99.90
20446;DHT22;10382;49.140;9.234;2022-08-01T02:32:25;23.30;99.90
20446;DHT22;10382;49.140;9.234;2022-08-01T02:34:56;23.40;99.90
20446;DHT22;10382;49.140;9.234;2022-08-01T02:37:24;23.40;99.90
20446;DHT22;10382;49.140;9.234;2022-08-01T02:39:54;23.40;99.90
20446;DHT22;10382;49.140;9.234;2022-08-01T02:42:23;23.40;99.90
20446;DHT22;10382;49.140;9.234;2022-08-01T02:44:52;23.30;99.90
20446;DHT22;10382;49.140;9.234;2022-08-01T02:47:20;23.30;99.90
20446;DHT22;10382;49.140;9.234;2022-08-01T02:49:49;23.30;99.90
20446;DHT22;10382;49.140;9.234;2022-08-01T02:52:20;23.20;99.90
20446;DHT22;10382;49.140;9.234;2022-08-01T02:54:51;23.20;99.90
20446;DHT22;10382;49.140;9.234;2022-08-01T02:57:20;23.20;99.90
20446;DHT22;10382;49.140;9.234;2022-08-01T02:59:49;23.10;99.90
20446;DHT22;10382;49.140;9.234;2022-08-01T03:02:17;23.00;99.90
20446;DHT22;10382;49.140;9.234;2022-08-01T03:04:45;22.90;99.90
20446;DHT22;10382;49.140;9.234;2022-08-01T03:07:13;22.80;99.90
20446;DHT22;10382;49.140;9.234;2022-08-01T03:09:44;22.80;99.90
20446;DHT22;10382;49.140;9.234;2022-08-01T03:12:14;22.80;99.90
20446;DHT22;10382;49.140;9.234;2022-08-01T03:14:43;22.80;99.90
20446;DHT22;10382;49.140;9.234;2022-08-01T03:17:11;22.80;99.90
20446;DHT22;10382;49.140;9.234;2022-08-01T03:19:39;22.70;99.90
20446;DHT22;10382;49.140;9.234;2022-08-01T03:22:10;22.60;99.90
20446;DHT22;10382;49.140;9.234;2022-08-01T03:24:39;22.60;99.90
20446;DHT22;10382;49.140;9.234;2022-08-01T03:27:08;22.50;99.90
20446;DHT22;10382;49.140;9.234;2022-08-01T03:29:37;22.40;99.90
20446;DHT22;10382;49.140;9.234;2022-08-01T03:32:06;22.30;99.90
20446;DHT22;10382;49.140;9.234;2022-08-01T03:34:33;22.20;99.90
20446;DHT22;10382;49.140;9.234;2022-08-01T03:37:03;22.20;99.90
20446;DHT22;10382;49.140;9.234;2022-08-01T03:39:34;22.20;99.90
20446;DHT22;10382;49.140;9.234;2022-08-01T03:42:09;22.20;99.90
20446;DHT22;10382;49.140;9.234;2022-08-01T03:44:39;22.20;99.90
20446;DHT22;10382;49.140;9.234;2022-08-01T03:47:09;22.20;99.90
20446;DHT22;10382;49.140;9.234;2022-08-01T03:49:41;22.20;99.90
20446;DHT22;10382;49.140;9.234;2022-08-01T03:52:09;22.20;99.90
20446;DHT22;10382;49.140;9.234;2022-08-01T03:54:41;22.20;99.90
20446;DHT22;10382;49.140;9.234;2022-08-01T03:57:12;22.20;99.90
20446;DHT22;10382;49.140;9.234;2022-08-01T03:59:40;22.30;99.90
20446;DHT22;10382;49.140;9.234;2022-08-01T04:02:08;22.30;99.90
20446;DHT22;10382;49.140;9.234;2022-08-01T04:04:35;22.30;99.90
20446;DHT22;10382;49.140;9.234;2022-08-01T04:07:02;22.30;99.90
20446;DHT22;10382;49.140;9.234;2022-08-01T04:09:32;22.30;99.90
20446;DHT22;10382;49.140;9.234;2022-08-01T04:11:59;22.30;99.90
20446;DHT22;10382;49.140;9.234;2022-08-01T04:14:28;22.30;99.90
20446;DHT22;10382;49.140;9.234;2022-08-01T04:16:55;22.20;99.90
20446;DHT22;10382;49.140;9.234;2022-08-01T04:19:22;22.10;99.90
20446;DHT22;10382;49.140;9.234;2022-08-01T04:21:49;21.90;99.90
20446;DHT22;10382;49.140;9.234;2022-08-01T04:24:18;21.70;99.90
20446;DHT22;10382;49.140;9.234;2022-08-01T04:26:47;21.60;99.90
20446;DHT22;10382;49.140;9.234;2022-08-01T04:29:17;21.70;99.90
20446;DHT22;10382;49.140;9.234;2022-08-01T04:31:47;21.70;99.90
20446;DHT22;10382;49.140;9.234;2022-08-01T04:34:17;21.70;99.90
20446;DHT22;10382;49.140;9.234;2022-08-01T04:36:47;21.90;99.90
20446;DHT22;10382;49.140;9.234;2022-08-01T04:39:16;21.90;99.90
20446;DHT22;10382;49.140;9.234;2022-08-01T04:41:46;22.00;99.90
20446;DHT22;10382;49.140;9.234;2022-08-01T04:44:13;22.20;99.90
20446;DHT22;10382;49.140;9.234;2022-08-01T04:46:40;22.30;99.90
20446;DHT22;10382;49.140;9.234;2022-08-01T04:49:10;22.40;99.90
20446;DHT22;10382;49.140;9.234;2022-08-01T04:51:49;22.50;99.90
20446;DHT22;10382;49.140;9.234;2022-08-01T04:54:16;22.60;99.90
20446;DHT22;10382;49.140;9.234;2022-08-01T04:56:44;22.70;99.90
20446;DHT22;10382;49.140;9.234;2022-08-01T04:59:11;22.70;99.90
20446;DHT22;10382;49.140;9.234;2022-08-01T05:01:55;22.80;99.90
20446;DHT22;10382;49.140;9.234;2022-08-01T05:04:23;22.80;99.90
20446;DHT22;10382;49.140;9.234;2022-08-01T05:06:50;22.90;99.90
20446;DHT22;10382;49.140;9.234;2022-08-01T05:09:17;23.00;99.90
20446;DHT22;10382;49.140;9.234;2022-08-01T05:11:44;23.20;99.90
20446;DHT22;10382;49.140;9.234;2022-08-01T05:14:11;23.30;99.90
20446;DHT22;10382;49.140;9.234;2022-08-01T05:16:39;23.50;99.90
20446;DHT22;10382;49.140;9.234;2022-08-01T05:19:07;23.60;99.90
20446;DHT22;10382;49.140;9.234;2022-08-01T05:21:35;23.80;99.90
20446;DHT22;10382;49.140;9.234;2022-08-01T05:24:03;23.80;99.90
20446;DHT22;10382;49.140;9.234;2022-08-01T05:26:30;24.00;99.90
20446;DHT22;10382;49.140;9.234;2022-08-01T05:28:58;24.20;99.90
20446;DHT22;10382;49.140;9.234;2022-08-01T05:31:25;24.40;99.90
20446;DHT22;10382;49.140;9.234;2022-08-01T05:33:52;24.50;99.90
20446;DHT22;10382;49.140;9.234;2022-08-01T05:36:19;24.70;99.90
20446;DHT22;10382;49.140;9.234;2022-08-01T05:38:47;24.80;99.90
20446;DHT22;10382;49.140;9.234;2022-08-01T05:41:14;25.00;99.90
20446;DHT22;10382;49.140;9.234;2022-08-01T05:43:41;25.20;99.90
20446;DHT22;10382;49.140;9.234;2022-08-01T05:46:08;25.40;99.90
20446;DHT22;10382;49.140;9.234;2022-08-01T05:48:35;25.40;99.90
20446;DHT22;10382;49.140;9.234;2022-08-01T05:51:02;25.30;99.90
20446;DHT22;10382;49.140;9.234;2022-08-01T05:53:29;25.40;99.90
20446;DHT22;10382;49.140;9.234;2022-08-01T05:55:57;25.40;99.90
20446;DHT22;10382;49.140;9.234;2022-08-01T05:58:24;25.50;99.90
20446;DHT22;10382;49.140;9.234;2022-08-01T06:00:51;25.40;99.90
20446;DHT22;10382;49.140;9.234;2022-08-01T06:03:18;25.30;99.90
20446;DHT22;10382;49.140;9.234;2022-08-01T06:05:45;25.30;99.90
20446;DHT22;10382;49.140;9.234;2022-08-01T06:08:12;25.30;99.90
20446;DHT22;10382;49.140;9.234;2022-08-01T06:10:39;25.50;99.90
20446;DHT22;10382;49.140;9.234;2022-08-01T06:13:07;25.60;99.90
20446;DHT22;10382;49.140;9.234;2022-08-01T06:15:34;25.80;99.90
20446;DHT22;10382;49.140;9.234;2022-08-01T06:18:01;25.90;99.90
20446;DHT22;10382;49.140;9.234;2022-08-01T06:20:29;26.10;99.90
20446;DHT22;10382;49.140;9.234;2022-08-01T06:22:56;26.20;99.90
20446;DHT22;10382;49.140;9.234;2022-08-01T06:25:23;26.30;99.90
20446;DHT22;10382;49.140;9.234;2022-08-01T06:27:50;26.40;99.90
20446;DHT22;10382;49.140;9.234;2022-08-01T06:30:19;26.60;99.90
20446;DHT22;10382;49.140;9.234;2022-08-01T06:32:46;26.70;99.90
20446;DHT22;10382;49.140;9.234;2022-08-01T06:35:13;26.90;99.90
20446;DHT22;10382;49.140;9.234;2022-08-01T06:37:40;27.30;99.90
20446;DHT22;10382;49.140;9.234;2022-08-01T06:40:09;27.60;99.90
20446;DHT22;10382;49.140;9.234;2022-08-01T06:42:37;27.80;99.90
20446;DHT22;10382;49.140;9.234;2022-08-01T06:45:06;28.10;99.90
20446;DHT22;10382;49.140;9.234;2022-08-01T06:47:34;28.40;99.90
20446;DHT22;10382;49.140;9.234;2022-08-01T06:50:02;28.70;99.90
20446;DHT22;10382;49.140;9.234;2022-08-01T06:52:29;29.00;99.90
20446;DHT22;10382;49.140;9.234;2022-08-01T06:54:56;29.20;99.90
20446;DHT22;10382;49.140;9.234;2022-08-01T06:57:23;29.40;99.90
20446;DHT22;10382;49.140;9.234;2022-08-01T06:59:50;29.40;99.90
20446;DHT22;10382;49.140;9.234;2022-08-01T07:02:17;29.60;99.90
20446;DHT22;10382;49.140;9.234;2022-08-01T07:04:45;29.70;99.90
20446;DHT22;10382;49.140;9.234;2022-08-01T07:07:12;29.80;99.90
20446;DHT22;10382;49.140;9.234;2022-08-01T07:09:39;30.10;99.90
20446;DHT22;10382;49.140;9.234;2022-08-01T07:12:06;30.20;99.90
20446;DHT22;10382;49.140;9.234;2022-08-01T07:14:33;30.40;99.90
20446;DHT22;10382;49.140;9.234;2022-08-01T07:17:00;30.50;99.90
20446;DHT22;10382;49.140;9.234;2022-08-01T07:19:27;30.80;99.90
20446;DHT22;10382;49.140;9.234;2022-08-01T07:21:55;30.90;99.60
20446;DHT22;10382;49.140;9.234;2022-08-01T07:24:22;31.10;98.50
20446;DHT22;10382;49.140;9.234;2022-08-01T07:26:49;31.30;98.10
20446;DHT22;10382;49.140;9.234;2022-08-01T07:29:16;31.50;96.60
20446;DHT22;10382;49.140;9.234;2022-08-01T07:31:43;31.40;96.90
20446;DHT22;10382;49.140;9.234;2022-08-01T07:34:10;31.30;95.90
20446;DHT22;10382;49.140;9.234;2022-08-01T07:36:36;30.90;96.40
20446;DHT22;10382;49.140;9.234;2022-08-01T07:39:05;30.90;96.90
20446;DHT22;10382;49.140;9.234;2022-08-01T07:41:32;31.00;96.60
20446;DHT22;10382;49.140;9.234;2022-08-01T07:43:58;31.20;95.70
20446;DHT22;10382;49.140;9.234;2022-08-01T07:46:25;31.20;95.90
20446;DHT22;10382;49.140;9.234;2022-08-01T07:48:53;31.10;95.20
20446;DHT22;10382;49.140;9.234;2022-08-01T07:51:19;30.90;95.10
20446;DHT22;10382;49.140;9.234;2022-08-01T07:53:46;30.90;95.60
20446;DHT22;10382;49.140;9.234;2022-08-01T07:56:15;30.90;95.70
20446;DHT22;10382;49.140;9.234;2022-08-01T07:58:41;30.80;95.60
20446;DHT22;10382;49.140;9.234;2022-08-01T08:01:09;30.60;95.50
20446;DHT22;10382;49.140;9.234;2022-08-01T08:03:36;30.30;95.80
20446;DHT22;10382;49.140;9.234;2022-08-01T08:06:03;30.20;96.40
20446;DHT22;10382;49.140;9.234;2022-08-01T08:08:29;30.10;96.20
20446;DHT22;10382;49.140;9.234;2022-08-01T08:10:57;29.90;95.90
20446;DHT22;10382;49.140;9.234;2022-08-01T08:13:25;29.70;97.00
20446;DHT22;10382;49.140;9.234;2022-08-01T08:15:52;29.60;97.30
20446;DHT22;10382;49.140;9.234;2022-08-01T08:18:19;29.70;96.70
20446;DHT22;10382;49.140;9.234;2022-08-01T08:20:46;29.50;96.90
20446;DHT22;10382;49.140;9.234;2022-08-01T08:23:13;29.20;97.80
20446;DHT22;10382;49.140;9.234;2022-08-01T08:25:57;29.20;98.30
20446;DHT22;10382;49.140;9.234;2022-08-01T08:28:25;29.20;98.10
20446;DHT22;10382;49.140;9.234;2022-08-01T08:30:52;29.20;97.90
20446;DHT22;10382;49.140;9.234;2022-08-01T08:33:20;29.00;97.60
20446;DHT22;10382;49.140;9.234;2022-08-01T08:35:47;29.00;98.70
20446;DHT22;10382;49.140;9.234;2022-08-01T08:38:14;29.30;97.90
20446;DHT22;10382;49.140;9.234;2022-08-01T08:40:41;29.30;96.80
20446;DHT22;10382;49.140;9.234;2022-08-01T08:43:08;28.90;97.50
20446;DHT22;10382;49.140;9.234;2022-08-01T08:45:37;28.70;98.10
20446;DHT22;10382;49.140;9.234;2022-08-01T08:48:05;28.60;98.60
20446;DHT22;10382;49.140;9.234;2022-08-01T08:50:32;28.80;98.70
20446;DHT22;10382;49.140;9.234;2022-08-01T08:53:01;29.00;98.60
20446;DHT22;10382;49.140;9.234;2022-08-01T08:55:28;29.30;98.00
20446;DHT22;10382;49.140;9.234;2022-08-01T08:57:56;29.30;96.50
20446;DHT22;10382;49.140;9.234;2022-08-01T09:00:25;29.00;97.00
20446;DHT22;10382;49.140;9.234;2022-08-01T09:02:53;28.70;98.10
20446;DHT22;10382;49.140;9.234;2022-08-01T09:05:23;28.80;98.20
20446;DHT22;10382;49.140;9.234;2022-08-01T09:07:52;28.90;98.90
20446;DHT22;10382;49.140;9.234;2022-08-01T09:10:20;29.20;97.70
20446;DHT22;10382;49.140;9.234;2022-08-01T09:13:03;29.30;98.00
20446;DHT22;10382;49.140;9.234;2022-08-01T09:15:38;29.40;97.50
20446;DHT22;10382;49.140;9.234;2022-08-01T09:18:07;29.50;97.60
20446;DHT22;10382;49.140;9.234;2022-08-01T09:20:34;29.70;97.50
20446;DHT22;10382;49.140;9.234;2022-08-01T09:23:02;29.80;96.60
20446;DHT22;10382;49.140;9.234;2022-08-01T09:25:29;29.90;96.90
20446;DHT22;10382;49.140;9.234;2022-08-01T09:28:03;30.10;96.70
20446;DHT22;10382;49.140;9.234;2022-08-01T09:30:37;30.40;96.20
20446;DHT22;10382;49.140;9.234;2022-08-01T09:33:06;30.70;95.70
20446;DHT22;10382;49.140;9.234;2022-08-01T09:35:35;31.00;94.90
20446;DHT22;10382;49.140;9.234;2022-08-01T09:38:15;31.40;94.50
20446;DHT22;10382;49.140;9.234;2022-08-01T09:40:46;31.40;93.30
20446;DHT22;10382;49.140;9.234;2022-08-01T09:43:13;31.00;93.90
20446;DHT22;10382;49.140;9.234;2022-08-01T09:45:40;30.80;94.30
20446;DHT22;10382;49.140;9.234;2022-08-01T09:48:09;30.70;94.80
20446;DHT22;10382;49.140;9.234;2022-08-01T09:50:40;31.00;95.10
20446;DHT22;10382;49.140;9.234;2022-08-01T09:53:08;31.40;94.20
20446;DHT22;10382;49.140;9.234;2022-08-01T09:55:35;31.80;92.80
20446;DHT22;10382;49.140;9.234;2022-08-01T09:58:02;31.80;92.60
20446;DHT22;10382;49.140;9.234;2022-08-01T10:00:30;31.70;92.50
20446;DHT22;10382;49.140;9.234;2022-08-01T10:02:57;31.70;92.20
20446;DHT22;10382;49.140;9.234;2022-08-01T10:05:32;31.60;92.60
20446;DHT22;10382;49.140;9.234;2022-08-01T10:08:01;31.50;92.50
20446;DHT22;10382;49.140;9.234;2022-08-01T10:10:28;31.30;92.40
20446;DHT22;10382;49.140;9.234;2022-08-01T10:12:57;31.20;92.10
20446;DHT22;10382;49.140;9.234;2022-08-01T10:15:25;30.80;92.50
20446;DHT22;10382;49.140;9.234;2022-08-01T10:17:54;30.80;92.80
20446;DHT22;10382;49.140;9.234;2022-08-01T10:20:25;30.80;92.30
20446;DHT22;10382;49.140;9.234;2022-08-01T10:22:54;30.70;92.50
20446;DHT22;10382;49.140;9.234;2022-08-01T10:25:22;30.80;93.10
20446;DHT22;10382;49.140;9.234;2022-08-01T10:27:51;31.10;92.30
20446;DHT22;10382;49.140;9.234;2022-08-01T10:30:20;31.40;92.20
20446;DHT22;10382;49.140;9.234;2022-08-01T10:32:48;31.60;91.10
20446;DHT22;10382;49.140;9.234;2022-08-01T10:35:15;31.20;91.40
20446;DHT22;10382;49.140;9.234;2022-08-01T10:37:44;31.00;92.10
20446;DHT22;10382;49.140;9.234;2022-08-01T10:40:13;31.00;92.50
20446;DHT22;10382;49.140;9.234;2022-08-01T10:42:41;31.30;92.20
20446;DHT22;10382;49.140;9.234;2022-08-01T10:45:09;31.70;90.90
20446;DHT22;10382;49.140;9.234;2022-08-01T10:47:40;31.90;90.70
20446;DHT22;10382;49.140;9.234;2022-08-01T10:50:15;32.10;90.10
20446;DHT22;10382;49.140;9.234;2022-08-01T10:53:11;32.30;90.00
20446;DHT22;10382;49.140;9.234;2022-08-01T10:55:51;32.50;88.90
20446;DHT22;10382;49.140;9.234;2022-08-01T10:58:22;32.70;87.60
20446;DHT22;10382;49.140;9.234;2022-08-01T11:01:19;32.80;86.60
20446;DHT22;10382;49.140;9.234;2022-08-01T11:03:58;32.80;85.20
20446;DHT22;10382;49.140;9.234;2022-08-01T11:06:28;32.50;84.50
20446;DHT22;10382;49.140;9.234;2022-08-01T11:09:04;32.20;85.50
20446;DHT22;10382;49.140;9.234;2022-08-01T11:11:56;31.70;86.10
20446;DHT22;10382;49.140;9.234;2022-08-01T11:14:23;31.20;87.80
20446;DHT22;10382;49.140;9.234;2022-08-01T11:16:50;30.70;88.60
20446;DHT22;10382;49.140;9.234;2022-08-01T11:19:17;30.40;89.70
20446;DHT22;10382;49.140;9.234;2022-08-01T11:22:00;30.20;90.00
20446;DHT22;10382;49.140;9.234;2022-08-01T11:24:55;30.10;90.60
20446;DHT22;10382;49.140;9.234;2022-08-01T11:27:27;30.00;90.80
20446;DHT22;10382;49.140;9.234;2022-08-01T11:30:22;30.00;90.80
20446;DHT22;10382;49.140;9.234;2022-08-01T11:32:52;30.10;90.80
20446;DHT22;10382;49.140;9.234;2022-08-01T11:35:19;30.10;90.90
20446;DHT22;10382;49.140;9.234;2022-08-01T11:37:49;30.30;90.90
20446;DHT22;10382;49.140;9.234;2022-08-01T11:40:19;30.80;90.50
20446;DHT22;10382;49.140;9.234;2022-08-01T11:42:49;31.20;89.10
20446;DHT22;10382;49.140;9.234;2022-08-01T11:45:16;31.50;88.30
20446;DHT22;10382;49.140;9.234;2022-08-01T11:47:44;31.90;87.80
20446;DHT22;10382;49.140;9.234;2022-08-01T11:50:29;32.10;87.20
20446;DHT22;10382;49.140;9.234;2022-08-01T11:52:57;32.10;85.90
20446;DHT22;10382;49.140;9.234;2022-08-01T11:55:26;32.10;86.40
20446;DHT22;10382;49.140;9.234;2022-08-01T11:58:00;32.20;85.20
20446;DHT22;10382;49.140;9.234;2022-08-01T12:00:28;32.30;83.90
20446;DHT22;10382;49.140;9.234;2022-08-01T12:03:00;32.30;83.10
20446;DHT22;10382;49.140;9.234;2022-08-01T12:05:29;32.30;82.80
20446;DHT22;10382;49.140;9.234;2022-08-01T12:07:56;32.30;81.80
20446;DHT22;10382;49.140;9.234;2022-08-01T12:10:25;32.40;80.40
20446;DHT22;10382;49.140;9.234;2022-08-01T12:12:55;32.40;80.90
20446;DHT22;10382;49.140;9.234;2022-08-01T12:15:28;32.50;80.90
20446;DHT22;10382;49.140;9.234;2022-08-01T12:17:56;32.50;81.50
20446;DHT22;10382;49.140;9.234;2022-08-01T12:20:24;32.60;81.20
20446;DHT22;10382;49.140;9.234;2022-08-01T12:22:53;32.60;80.20
20446;DHT22;10382;49.140;9.234;2022-08-01T12:25:20;32.50;79.50
20446;DHT22;10382;49.140;9.234;2022-08-01T12:27:48;32.50;79.50
20446;DHT22;10382;49.140;9.234;2022-08-01T12:30:17;32.60;79.80
20446;DHT22;10382;49.140;9.234;2022-08-01T12:32:46;32.80;78.90
20446;DHT22;10382;49.140;9.234;2022-08-01T12:35:15;33.10;79.00
20446;DHT22;10382;49.140;9.234;2022-08-01T12:37:45;33.30;79.40
20446;DHT22;10382;49.140;9.234;2022-08-01T12:40:14;33.60;77.70
20446;DHT22;10382;49.140;9.234;2022-08-01T12:42:42;33.70;74.80
20446;DHT22;10382;49.140;9.234;2022-08-01T12:45:12;33.60;74.00
20446;DHT22;10382;49.140;9.234;2022-08-01T12:47:40;33.60;74.30
20446;DHT22;10382;49.140;9.234;2022-08-01T12:50:12;33.80;73.70
20446;DHT22;10382;49.140;9.234;2022-08-01T12:52:41;34.00;74.20
20446;DHT22;10382;49.140;9.234;2022-08-01T12:55:11;34.10;73.20
20446;DHT22;10382;49.140;9.234;2022-08-01T12:57:40;34.10;73.50
20446;DHT22;10382;49.140;9.234;2022-08-01T13:00:10;34.10;73.50
20446;DHT22;10382;49.140;9.234;2022-08-01T13:02:38;34.10;73.10
20446;DHT22;10382;49.140;9.234;2022-08-01T13:05:08;34.00;72.80
20446;DHT22;10382;49.140;9.234;2022-08-01T13:07:44;33.70;73.00
20446;DHT22;10382;49.140;9.234;2022-08-01T13:10:12;33.70;73.90
20446;DHT22;10382;49.140;9.234;2022-08-01T13:12:40;34.00;73.00
20446;DHT22;10382;49.140;9.234;2022-08-01T13:15:17;34.20;73.20
20446;DHT22;10382;49.140;9.234;2022-08-01T13:17:44;34.30;72.10
20446;DHT22;10382;49.140;9.234;2022-08-01T13:20:23;34.10;71.40
20446;DHT22;10382;49.140;9.234;2022-08-01T13:22:50;34.00;72.00
20446;DHT22;10382;49.140;9.234;2022-08-01T13:25:18;34.00;72.50
20446;DHT22;10382;49.140;9.234;2022-08-01T13:27:45;34.40;71.90
20446;DHT22;10382;49.140;9.234;2022-08-01T13:30:14;34.50;70.60
20446;DHT22;10382;49.140;9.234;2022-08-01T13:32:41;34.50;70.30
20446;DHT22;10382;49.140;9.234;2022-08-01T13:35:11;34.30;70.40
20446;DHT22;10382;49.140;9.234;2022-08-01T13:37:41;33.90;70.60
20446;DHT22;10382;49.140;9.234;2022-08-01T13:40:10;33.80;72.00
20446;DHT22;10382;49.140;9.234;2022-08-01T13:42:38;34.10;71.20
20446;DHT22;10382;49.140;9.234;2022-08-01T13:45:06;34.30;70.00
20446;DHT22;10382;49.140;9.234;2022-08-01T13:47:36;34.40;69.00
20446;DHT22;10382;49.140;9.234;2022-08-01T13:50:03;34.50;68.40
20446;DHT22;10382;49.140;9.234;2022-08-01T13:52:30;34.30;68.30
20446;DHT22;10382;49.140;9.234;2022-08-01T13:54:59;34.00;69.00
20446;DHT22;10382;49.140;9.234;2022-08-01T13:57:26;33.80;69.50
20446;DHT22;10382;49.140;9.234;2022-08-01T13:59:53;33.70;69.90
20446;DHT22;10382;49.140;9.234;2022-08-01T14:02:20;33.50;69.30
20446;DHT22;10382;49.140;9.234;2022-08-01T14:04:47;33.50;69.30
20446;DHT22;10382;49.140;9.234;2022-08-01T14:07:14;33.40;69.10
20446;DHT22;10382;49.140;9.234;2022-08-01T14:09:41;33.40;69.80
20446;DHT22;10382;49.140;9.234;2022-08-01T14:12:10;33.50;68.30
20446;DHT22;10382;49.140;9.234;2022-08-01T14:14:37;33.40;68.40
20446;DHT22;10382;49.140;9.234;2022-08-01T14:17:04;33.30;69.20
20446;DHT22;10382;49.140;9.234;2022-08-01T14:19:31;33.40;68.30
20446;DHT22;10382;49.140;9.234;2022-08-01T14:21:58;33.50;68.50
20446;DHT22;10382;49.140;9.234;2022-08-01T14:24:25;33.60;68.10
20446;DHT22;10382;49.140;9.234;2022-08-01T14:26:52;33.40;68.30
20446;DHT22;10382;49.140;9.234;2022-08-01T14:29:21;33.40;69.10
20446;DHT22;10382;49.140;9.234;2022-08-01T14:31:47;33.50;68.30
20446;DHT22;10382;49.140;9.234;2022-08-01T14:34:14;33.70;68.10
20446;DHT22;10382;49.140;9.234;2022-08-01T14:36:42;33.50;67.80
20446;DHT22;10382;49.140;9.234;2022-08-01T14:39:09;33.20;68.00
20446;DHT22;10382;49.140;9.234;2022-08-01T14:41:36;33.10;68.90
20446;DHT22;10382;49.140;9.234;2022-08-01T14:44:03;33.20;69.50
20446;DHT22;10382;49.140;9.234;2022-08-01T14:46:31;33.20;69.00
20446;DHT22;10382;49.140;9.234;2022-08-01T14:48:58;33.10;68.90
20446;DHT22;10382;49.140;9.234;2022-08-01T14:51:25;33.00;68.60
20446;DHT22;10382;49.140;9.234;2022-08-01T14:53:52;32.90;68.80
20446;DHT22;10382;49.140;9.234;2022-08-01T14:56:19;32.60;68.60
20446;DHT22;10382;49.140;9.234;2022-08-01T14:58:46;32.40;69.20
20446;DHT22;10382;49.140;9.234;2022-08-01T15:01:13;32.30;69.40
20446;DHT22;10382;49.140;9.234;2022-08-01T15:03:41;32.20;70.30
20446;DHT22;10382;49.140;9.234;2022-08-01T15:06:08;32.30;70.70
20446;DHT22;10382;49.140;9.234;2022-08-01T15:08:37;32.30;70.50
20446;DHT22;10382;49.140;9.234;2022-08-01T15:11:04;32.30;70.90
20446;DHT22;10382;49.140;9.234;2022-08-01T15:13:31;32.40;70.90
20446;DHT22;10382;49.140;9.234;2022-08-01T15:15:58;32.30;70.50
20446;DHT22;10382;49.140;9.234;2022-08-01T15:18:25;32.30;70.70
20446;DHT22;10382;49.140;9.234;2022-08-01T15:20:53;32.30;71.50
20446;DHT22;10382;49.140;9.234;2022-08-01T15:23:20;32.40;71.40
20446;DHT22;10382;49.140;9.234;2022-08-01T15:25:47;32.50;70.40
20446;DHT22;10382;49.140;9.234;2022-08-01T15:28:14;32.50;70.60
20446;DHT22;10382;49.140;9.234;2022-08-01T15:30:41;32.30;70.60
20446;DHT22;10382;49.140;9.234;2022-08-01T15:33:08;32.30;71.10
20446;DHT22;10382;49.140;9.234;2022-08-01T15:35:35;32.20;71.00
20446;DHT22;10382;49.140;9.234;2022-08-01T15:38:03;32.30;71.00
20446;DHT22;10382;49.140;9.234;2022-08-01T15:40:30;32.40;70.70
20446;DHT22;10382;49.140;9.234;2022-08-01T15:43:00;32.40;69.70